Time,TemperatureF,DewpointF,PressureIn,WindDirection,WindDirectionDegrees,WindSpeedMPH,WindSpeedGustMPH,Humidity,HourlyPrecipIn,Conditions,Clouds,dailyrainin,SolarRadiationWatts/m^2,SoftwareType,DateUTC
2013-02-10 00:01:00,24.0,14.0,-100.00,SE,141,2.0,3.0,65,0.00,,,0.00,0.000000,,2013-02-10 05:01:00,
2013-02-10 00:11:00,24.0,14.0,-100.00,SE,141,2.0,3.0,65,0.00,,,0.00,0.000000,,2013-02-10 05:11:00,
2013-02-10 00:32:00,23.0,13.0,-100.00,South,175,4.0,6.0,66,0.00,,,0.00,0.000000,,2013-02-10 05:32:00,
2013-02-10 00:42:00,23.0,13.0,-100.00,South,175,4.0,6.0,66,0.00,,,0.00,0.000000,,2013-02-10 05:42:00,
2013-02-10 00:52:00,23.0,13.0,-100.00,South,175,4.0,6.0,66,0.00,,,0.00,0.000000,,2013-02-10 05:52:00,
2013-02-10 01:02:00,23.0,13.0,-100.00,South,175,4.0,6.0,66,0.00,,,0.00,0.000000,,2013-02-10 06:02:00,
2013-02-10 01:11:00,23.0,13.0,-100.00,South,175,4.0,6.0,66,0.00,,,0.00,0.000000,,2013-02-10 06:11:00,
2013-02-10 01:32:00,21.0,13.0,-100.00,SSW,198,3.0,5.0,72,0.00,,,0.00,0.000000,,2013-02-10 06:32:00,
2013-02-10 01:42:00,21.0,13.0,-100.00,SSW,198,3.0,5.0,72,0.00,,,0.00,0.000000,,2013-02-10 06:42:00,
2013-02-10 01:52:00,21.0,13.0,-100.00,SSW,198,3.0,5.0,72,0.00,,,0.00,0.000000,,2013-02-10 06:52:00,
2013-02-10 02:01:00,21.0,13.0,-100.00,SSW,198,3.0,5.0,72,0.00,,,0.00,0.000000,,2013-02-10 07:01:00,
2013-02-10 02:11:00,21.0,13.0,-100.00,SSW,198,3.0,5.0,72,0.00,,,0.00,0.000000,,2013-02-10 07:11:00,
2013-02-10 02:42:00,20.0,14.0,-100.00,ESE,107,1.0,5.0,77,0.00,,,-99.99,0.000000,,2013-02-10 07:42:00,
2013-02-10 02:52:00,20.0,14.0,-100.00,ESE,107,1.0,5.0,77,0.00,,,-99.99,0.000000,,2013-02-10 07:52:00,
2013-02-10 03:01:00,20.0,14.0,-100.00,ESE,107,1.0,5.0,77,0.00,,,-99.99,0.000000,,2013-02-10 08:01:00,
2013-02-10 03:11:00,20.0,14.0,-100.00,ESE,107,1.0,5.0,77,0.00,,,-99.99,0.000000,,2013-02-10 08:11:00,
2013-02-10 03:43:00,18.0,13.0,-100.00,West,262,2.0,3.0,81,0.00,,,0.00,0.000000,,2013-02-10 08:43:00,
2013-02-10 03:52:00,18.0,13.0,-100.00,West,262,2.0,3.0,81,0.00,,,0.00,0.000000,,2013-02-10 08:52:00,
2013-02-10 04:02:00,18.0,13.0,-100.00,West,262,2.0,3.0,81,0.00,,,0.00,0.000000,,2013-02-10 09:02:00,
2013-02-10 04:11:00,18.0,13.0,-100.00,West,262,2.0,3.0,81,0.00,,,0.00,0.000000,,2013-02-10 09:11:00,
2013-02-10 04:32:00,19.0,14.0,-100.00,SSW,200,3.0,5.0,79,0.00,,,0.00,0.000000,,2013-02-10 09:32:00,
2013-02-10 04:42:00,19.0,14.0,-100.00,SSW,200,3.0,5.0,79,0.00,,,0.00,0.000000,,2013-02-10 09:42:00,
2013-02-10 04:52:00,19.0,14.0,-100.00,SSW,200,3.0,5.0,79,0.00,,,0.00,0.000000,,2013-02-10 09:52:00,
2013-02-10 05:01:00,19.0,14.0,-100.00,SSW,200,3.0,5.0,79,0.00,,,0.00,0.000000,,2013-02-10 10:01:00,
2013-02-10 05:11:00,19.0,14.0,-100.00,SSW,200,3.0,5.0,79,0.00,,,0.00,0.000000,,2013-02-10 10:11:00,
2013-02-10 05:42:00,18.0,13.0,-100.00,NNW,345,2.0,6.0,79,0.00,,,0.00,0.000000,,2013-02-10 10:42:00,
2013-02-10 05:52:00,18.0,13.0,-100.00,NNW,345,2.0,6.0,79,0.00,,,0.00,0.000000,,2013-02-10 10:52:00,
2013-02-10 06:01:00,18.0,13.0,-100.00,NNW,345,2.0,6.0,79,0.00,,,0.00,0.000000,,2013-02-10 11:01:00,
2013-02-10 06:11:00,18.0,13.0,-100.00,NNW,345,2.0,6.0,79,0.00,,,0.00,0.000000,,2013-02-10 11:11:00,
2013-02-10 06:32:00,16.0,12.0,-100.00,WSW,256,2.0,6.0,85,0.00,,,0.00,0.000000,,2013-02-10 11:32:00,
2013-02-10 06:42:00,16.0,12.0,-100.00,WSW,256,2.0,6.0,85,0.00,,,0.00,0.000000,,2013-02-10 11:42:00,
2013-02-10 06:52:00,16.0,12.0,-100.00,WSW,256,2.0,6.0,85,0.00,,,0.00,0.000000,,2013-02-10 11:52:00,
2013-02-10 07:02:00,16.0,12.0,-100.00,WSW,256,2.0,6.0,85,0.00,,,0.00,0.000000,,2013-02-10 12:02:00,
2013-02-10 07:12:00,16.0,12.0,-100.00,WSW,256,2.0,6.0,85,0.00,,,0.00,0.000000,,2013-02-10 12:12:00,
2013-02-10 10:32:00,34.0,20.0,-100.00,SSE,161,2.0,4.0,56,-99.99,,,0.00,294.000000,,2013-02-10 15:32:00,
2013-02-10 10:42:00,34.0,20.0,-100.00,SSE,161,2.0,4.0,56,-99.99,,,0.00,294.000000,,2013-02-10 15:42:00,
2013-02-10 10:52:00,34.0,20.0,-100.00,SSE,161,2.0,4.0,56,-99.99,,,0.00,294.000000,,2013-02-10 15:52:00,
2013-02-10 11:02:00,34.0,20.0,-100.00,SSE,161,2.0,4.0,56,-99.99,,,0.00,294.000000,,2013-02-10 16:02:00,
2013-02-10 11:12:00,34.0,20.0,-100.00,SSE,161,2.0,4.0,56,-99.99,,,0.00,294.000000,,2013-02-10 16:12:00,
2013-02-10 11:32:00,37.0,20.0,-100.00,SSE,155,7.0,12.0,49,0.00,,,0.00,373.000000,,2013-02-10 16:32:00,
2013-02-10 11:42:00,37.0,20.0,-100.00,SSE,155,7.0,12.0,49,0.00,,,0.00,373.000000,,2013-02-10 16:42:00,
2013-02-10 11:52:00,37.0,20.0,-100.00,SSE,155,7.0,12.0,49,0.00,,,0.00,373.000000,,2013-02-10 16:52:00,
2013-02-10 12:02:00,37.0,20.0,-100.00,SSE,155,7.0,12.0,49,0.00,,,0.00,373.000000,,2013-02-10 17:02:00,
2013-02-10 12:12:00,37.0,20.0,-100.00,SSE,155,7.0,12.0,49,0.00,,,0.00,373.000000,,2013-02-10 17:12:00,
2013-02-10 12:32:00,40.0,17.0,-100.00,SSE,152,7.0,14.0,39,0.00,,,0.00,507.000000,,2013-02-10 17:32:00,
2013-02-10 12:42:00,40.0,17.0,-100.00,SSE,152,7.0,14.0,39,0.00,,,0.00,507.000000,,2013-02-10 17:42:00,
2013-02-10 12:53:00,40.0,17.0,-100.00,SSE,152,7.0,14.0,39,0.00,,,0.00,507.000000,,2013-02-10 17:53:00,
2013-02-10 13:02:00,40.0,17.0,-100.00,SSE,152,7.0,14.0,39,0.00,,,0.00,507.000000,,2013-02-10 18:02:00,
2013-02-10 13:12:00,40.0,17.0,-100.00,SSE,152,7.0,14.0,39,0.00,,,0.00,507.000000,,2013-02-10 18:12:00,
2013-02-10 13:42:00,43.0,17.0,-100.00,SE,141,8.0,15.0,35,0.00,,,0.00,548.000000,,2013-02-10 18:42:00,
2013-02-10 13:52:00,43.0,17.0,-100.00,SE,141,8.0,15.0,35,0.00,,,0.00,548.000000,,2013-02-10 18:52:00,
2013-02-10 14:02:00,43.0,17.0,-100.00,SE,141,8.0,15.0,35,0.00,,,0.00,548.000000,,2013-02-10 19:02:00,
2013-02-10 14:12:00,43.0,17.0,-100.00,SE,141,8.0,15.0,35,0.00,,,0.00,548.000000,,2013-02-10 19:12:00,
2013-02-10 14:32:00,44.0,15.0,-100.00,SE,144,9.0,15.0,31,0.00,,,0.00,465.000000,,2013-02-10 19:32:00,
2013-02-10 14:43:00,44.0,15.0,-100.00,SE,144,9.0,15.0,31,0.00,,,0.00,465.000000,,2013-02-10 19:43:00,
2013-02-10 14:52:00,44.0,15.0,-100.00,SE,144,9.0,15.0,31,0.00,,,0.00,465.000000,,2013-02-10 19:52:00,
2013-02-10 15:02:00,44.0,15.0,-100.00,SE,144,9.0,15.0,31,0.00,,,0.00,465.000000,,2013-02-10 20:02:00,
2013-02-10 15:11:00,44.0,15.0,-100.00,SE,144,9.0,15.0,31,0.00,,,0.00,465.000000,,2013-02-10 20:11:00,
2013-02-10 15:42:00,43.0,14.0,-100.00,SSE,155,9.0,15.0,31,0.00,,,0.00,382.000000,,2013-02-10 20:42:00,
2013-02-10 15:52:00,43.0,14.0,-100.00,SSE,155,9.0,15.0,31,0.00,,,0.00,382.000000,,2013-02-10 20:52:00,
2013-02-10 16:02:00,43.0,14.0,-100.00,SSE,155,9.0,15.0,31,0.00,,,0.00,382.000000,,2013-02-10 21:02:00,
2013-02-10 16:11:00,43.0,14.0,-100.00,SSE,155,9.0,15.0,31,0.00,,,0.00,382.000000,,2013-02-10 21:11:00,
2013-02-10 16:32:00,44.0,16.0,-100.00,SSE,150,8.0,16.0,32,0.00,,,0.00,193.000000,,2013-02-10 21:32:00,
2013-02-10 16:42:00,44.0,16.0,-100.00,SSE,150,8.0,16.0,32,0.00,,,0.00,193.000000,,2013-02-10 21:42:00,
2013-02-10 16:52:00,44.0,16.0,-100.00,SSE,150,8.0,16.0,32,0.00,,,0.00,193.000000,,2013-02-10 21:52:00,
2013-02-10 17:02:00,44.0,16.0,-100.00,SSE,150,8.0,16.0,32,0.00,,,0.00,193.000000,,2013-02-10 22:02:00,
2013-02-10 17:12:00,44.0,16.0,-100.00,SSE,150,8.0,16.0,32,0.00,,,0.00,193.000000,,2013-02-10 22:12:00,
2013-02-10 17:42:00,42.0,16.0,-100.00,SSE,158,7.0,13.0,35,0.00,,,0.00,67.000000,,2013-02-10 22:42:00,
2013-02-10 17:53:00,42.0,16.0,-100.00,SSE,158,7.0,13.0,35,0.00,,,0.00,67.000000,,2013-02-10 22:53:00,
2013-02-10 18:02:00,42.0,16.0,-100.00,SSE,158,7.0,13.0,35,0.00,,,0.00,67.000000,,2013-02-10 23:02:00,
2013-02-10 18:12:00,42.0,16.0,-100.00,SSE,158,7.0,13.0,35,0.00,,,0.00,67.000000,,2013-02-10 23:12:00,
2013-02-10 18:32:00,41.0,17.0,-100.00,SSE,159,6.0,10.0,37,0.00,,,0.00,5.000000,,2013-02-10 23:32:00,
2013-02-10 18:42:00,41.0,17.0,-100.00,SSE,159,6.0,10.0,37,0.00,,,0.00,5.000000,,2013-02-10 23:42:00,
2013-02-10 18:52:00,41.0,17.0,-100.00,SSE,159,6.0,10.0,37,0.00,,,0.00,5.000000,,2013-02-10 23:52:00,
2013-02-10 19:02:00,41.0,17.0,-100.00,SSE,159,6.0,10.0,37,0.00,,,0.00,5.000000,,2013-02-11 00:02:00,
2013-02-10 19:11:00,41.0,17.0,-100.00,SSE,159,6.0,10.0,37,0.00,,,0.00,5.000000,,2013-02-11 00:11:00,
2013-02-10 19:42:00,41.0,17.0,-100.00,SSE,162,10.0,15.0,37,0.00,,,0.00,0.000000,,2013-02-11 00:42:00,
2013-02-10 19:52:00,41.0,17.0,-100.00,SSE,162,10.0,15.0,37,0.00,,,0.00,0.000000,,2013-02-11 00:52:00,
2013-02-10 20:01:00,41.0,17.0,-100.00,SSE,162,10.0,15.0,37,0.00,,,0.00,0.000000,,2013-02-11 01:01:00,
2013-02-10 20:11:00,41.0,17.0,-100.00,SSE,162,10.0,15.0,37,0.00,,,0.00,0.000000,,2013-02-11 01:11:00,
2013-02-10 21:42:00,41.0,17.0,-100.00,SSE,151,7.0,12.0,38,-99.99,,,0.00,0.000000,,2013-02-11 02:42:00,
2013-02-10 21:52:00,41.0,17.0,-100.00,SSE,151,7.0,12.0,38,-99.99,,,0.00,0.000000,,2013-02-11 02:52:00,
2013-02-10 22:02:00,41.0,17.0,-100.00,SSE,151,7.0,12.0,38,-99.99,,,0.00,0.000000,,2013-02-11 03:02:00,
2013-02-10 22:11:00,41.0,17.0,-100.00,SSE,151,7.0,12.0,38,-99.99,,,0.00,0.000000,,2013-02-11 03:11:00,
2013-02-10 22:32:00,40.0,18.0,-100.00,SSE,157,6.0,9.0,41,0.00,,,0.00,0.000000,,2013-02-11 03:32:00,
2013-02-10 22:42:00,40.0,18.0,-100.00,SSE,157,6.0,9.0,41,0.00,,,0.00,0.000000,,2013-02-11 03:42:00,
2013-02-10 22:52:00,40.0,18.0,-100.00,SSE,157,6.0,9.0,41,0.00,,,0.00,0.000000,,2013-02-11 03:52:00,
2013-02-10 23:02:00,40.0,18.0,-100.00,SSE,157,6.0,9.0,41,0.00,,,0.00,0.000000,,2013-02-11 04:02:00,
2013-02-10 23:11:00,40.0,18.0,-100.00,SSE,157,6.0,9.0,41,0.00,,,0.00,0.000000,,2013-02-11 04:11:00,
2013-02-10 23:32:00,40.0,19.0,-100.00,SSE,147,5.0,11.0,42,0.00,,,0.00,0.000000,,2013-02-11 04:32:00,
2013-02-10 23:42:00,40.0,19.0,-100.00,SSE,147,5.0,11.0,42,0.00,,,0.00,0.000000,,2013-02-11 04:42:00,
2013-02-10 23:52:00,40.0,19.0,-100.00,SSE,147,5.0,11.0,42,0.00,,,0.00,0.000000,,2013-02-11 04:52:00,